sensor_id;sensor_type;location;lat;lon;timestamp;pressure;altitude;pressure_sealevel;temperature
64947;BMP280;51469;52.150;4.682;2023-04-28T00:00:49;101635.91;;;16.07
64947;BMP280;51469;52.150;4.682;2023-04-28T00:03:15;101628.00;;;15.95
64947;BMP280;51469;52.150;4.682;2023-04-28T00:05:40;101624.06;;;15.89
64947;BMP280;51469;52.150;4.682;2023-04-28T00:08:06;101619.69;;;15.95
64947;BMP280;51469;52.150;4.682;2023-04-28T00:10:32;101614.97;;;16.06
64947;BMP280;51469;52.150;4.682;2023-04-28T00:12:57;101609.81;;;16.01
64947;BMP280;51469;52.150;4.682;2023-04-28T00:15:23;101606.28;;;16.04
64947;BMP280;51469;52.150;4.682;2023-04-28T00:17:48;101603.50;;;16.04
64947;BMP280;51469;52.150;4.682;2023-04-28T00:20:14;101594.81;;;15.92
64947;BMP280;51469;52.150;4.682;2023-04-28T00:22:39;101581.75;;;15.89
64947;BMP280;51469;52.150;4.682;2023-04-28T00:25:05;101604.28;;;15.73
64947;BMP280;51469;52.150;4.682;2023-04-28T00:27:34;101599.53;;;15.91
64947;BMP280;51469;52.150;4.682;2023-04-28T00:30:00;101599.56;;;16.02
64947;BMP280;51469;52.150;4.682;2023-04-28T00:32:25;101584.53;;;15.85
64947;BMP280;51469;52.150;4.682;2023-04-28T00:34:51;101594.03;;;15.95
64947;BMP280;51469;52.150;4.682;2023-04-28T00:37:17;101578.56;;;16.01
64947;BMP280;51469;52.150;4.682;2023-04-28T00:39:43;101576.22;;;16.06
64947;BMP280;51469;52.150;4.682;2023-04-28T00:42:11;101564.75;;;15.97
64947;BMP280;51469;52.150;4.682;2023-04-28T00:44:37;101552.09;;;15.96
64947;BMP280;51469;52.150;4.682;2023-04-28T00:47:03;101552.91;;;15.93
64947;BMP280;51469;52.150;4.682;2023-04-28T00:49:29;101551.31;;;15.71
64947;BMP280;51469;52.150;4.682;2023-04-28T00:51:54;101548.94;;;15.80
64947;BMP280;51469;52.150;4.682;2023-04-28T00:54:20;101552.50;;;15.91
64947;BMP280;51469;52.150;4.682;2023-04-28T00:56:46;101550.50;;;15.99
64947;BMP280;51469;52.150;4.682;2023-04-28T00:59:11;101538.28;;;15.93
64947;BMP280;51469;52.150;4.682;2023-04-28T01:01:37;101544.59;;;15.97
64947;BMP280;51469;52.150;4.682;2023-04-28T01:04:02;101543.41;;;15.91
64947;BMP280;51469;52.150;4.682;2023-04-28T01:06:28;101544.97;;;15.99
64947;BMP280;51469;52.150;4.682;2023-04-28T01:08:54;101533.13;;;15.91
64947;BMP280;51469;52.150;4.682;2023-04-28T01:11:20;101525.22;;;15.86
64947;BMP280;51469;52.150;4.682;2023-04-28T01:13:45;101526.00;;;15.97
64947;BMP280;51469;52.150;4.682;2023-04-28T01:16:11;101527.59;;;15.70
64947;BMP280;51469;52.150;4.682;2023-04-28T01:18:36;101522.06;;;15.81
64947;BMP280;51469;52.150;4.682;2023-04-28T01:21:02;101518.13;;;15.78
64947;BMP280;51469;52.150;4.682;2023-04-28T01:23:28;101520.47;;;15.90
64947;BMP280;51469;52.150;4.682;2023-04-28T01:25:54;101515.34;;;15.71
64947;BMP280;51469;52.150;4.682;2023-04-28T01:28:19;101507.03;;;15.71
64947;BMP280;51469;52.150;4.682;2023-04-28T01:30:44;101516.91;;;15.76
64947;BMP280;51469;52.150;4.682;2023-04-28T01:33:10;101510.22;;;15.73
64947;BMP280;51469;52.150;4.682;2023-04-28T01:35:35;101505.06;;;15.75
64947;BMP280;51469;52.150;4.682;2023-04-28T01:38:00;101496.78;;;15.61
64947;BMP280;51469;52.150;4.682;2023-04-28T01:40:26;101497.56;;;15.55
64947;BMP280;51469;52.150;4.682;2023-04-28T01:42:51;101485.72;;;15.61
64947;BMP280;51469;52.150;4.682;2023-04-28T01:45:17;101493.59;;;15.52
64947;BMP280;51469;52.150;4.682;2023-04-28T01:47:42;101488.06;;;15.56
64947;BMP280;51469;52.150;4.682;2023-04-28T01:50:07;101488.84;;;15.63
64947;BMP280;51469;52.150;4.682;2023-04-28T01:52:33;101474.25;;;15.66
64947;BMP280;51469;52.150;4.682;2023-04-28T01:54:58;101487.31;;;15.62
64947;BMP280;51469;52.150;4.682;2023-04-28T01:57:24;101485.31;;;15.66
64947;BMP280;51469;52.150;4.682;2023-04-28T01:59:50;101480.19;;;15.68
64947;BMP280;51469;52.150;4.682;2023-04-28T02:02:15;101474.66;;;15.75
64947;BMP280;51469;52.150;4.682;2023-04-28T02:04:40;101469.88;;;15.72
64947;BMP280;51469;52.150;4.682;2023-04-28T02:07:06;101458.03;;;15.54
64947;BMP280;51469;52.150;4.682;2023-04-28T02:09:32;101477.78;;;15.63
64947;BMP280;51469;52.150;4.682;2023-04-28T02:11:57;101476.19;;;15.69
64947;BMP280;51469;52.150;4.682;2023-04-28T02:14:24;101470.66;;;15.69
64947;BMP280;51469;52.150;4.682;2023-04-28T02:16:49;101459.19;;;15.74
64947;BMP280;51469;52.150;4.682;2023-04-28T02:19:15;101454.50;;;15.78
64947;BMP280;51469;52.150;4.682;2023-04-28T02:21:41;101443.81;;;15.73
64947;BMP280;51469;52.150;4.682;2023-04-28T02:24:07;101439.06;;;15.63
64947;BMP280;51469;52.150;4.682;2023-04-28T02:26:33;101433.53;;;15.70
64947;BMP280;51469;52.150;4.682;2023-04-28T02:28:58;101431.19;;;15.65
64947;BMP280;51469;52.150;4.682;2023-04-28T02:31:23;101428.81;;;15.64
64947;BMP280;51469;52.150;4.682;2023-04-28T02:33:49;101427.22;;;15.66
64947;BMP280;51469;52.150;4.682;2023-04-28T02:36:14;101426.44;;;15.55
64947;BMP280;51469;52.150;4.682;2023-04-28T02:38:39;101423.31;;;15.39
64947;BMP280;51469;52.150;4.682;2023-04-28T02:41:06;101423.28;;;15.53
64947;BMP280;51469;52.150;4.682;2023-04-28T02:43:33;101420.09;;;15.48
64947;BMP280;51469;52.150;4.682;2023-04-28T02:45:59;101412.22;;;15.25
64947;BMP280;51469;52.150;4.682;2023-04-28T02:48:25;101407.06;;;15.38
64947;BMP280;51469;52.150;4.682;2023-04-28T02:50:51;101411.44;;;15.28
64947;BMP280;51469;52.150;4.682;2023-04-28T02:53:17;101422.50;;;15.35
64947;BMP280;51469;52.150;4.682;2023-04-28T02:55:43;101418.53;;;15.36
64947;BMP280;51469;52.150;4.682;2023-04-28T02:58:09;101403.16;;;15.35
64947;BMP280;51469;52.150;4.682;2023-04-28T03:00:34;101406.69;;;15.46
64947;BMP280;51469;52.150;4.682;2023-04-28T03:02:59;101400.34;;;15.49
64947;BMP280;51469;52.150;4.682;2023-04-28T03:05:26;101397.22;;;15.47
64947;BMP280;51469;52.150;4.682;2023-04-28T03:07:51;101374.31;;;15.08
64947;BMP280;51469;52.150;4.682;2023-04-28T03:10:16;101386.97;;;15.30
64947;BMP280;51469;52.150;4.682;2023-04-28T03:12:42;101386.16;;;15.37
64947;BMP280;51469;52.150;4.682;2023-04-28T03:15:07;101385.34;;;15.43
64947;BMP280;51469;52.150;4.682;2023-04-28T03:17:33;101368.00;;;15.39
64947;BMP280;51469;52.150;4.682;2023-04-28T03:20:01;101379.06;;;15.22
64947;BMP280;51469;52.150;4.682;2023-04-28T03:22:27;101370.75;;;15.32
64947;BMP280;51469;52.150;4.682;2023-04-28T03:24:52;101369.22;;;15.24
64947;BMP280;51469;52.150;4.682;2023-04-28T03:27:17;101368.81;;;15.29
64947;BMP280;51469;52.150;4.682;2023-04-28T03:29:43;101361.69;;;15.28
64947;BMP280;51469;52.150;4.682;2023-04-28T03:32:08;101344.28;;;15.31
64947;BMP280;51469;52.150;4.682;2023-04-28T03:34:33;101343.50;;;15.20
64947;BMP280;51469;52.150;4.682;2023-04-28T03:36:59;101340.75;;;15.24
64947;BMP280;51469;52.150;4.682;2023-04-28T03:39:24;101330.91;;;15.23
64947;BMP280;51469;52.150;4.682;2023-04-28T03:41:49;101345.09;;;15.35
64947;BMP280;51469;52.150;4.682;2023-04-28T03:44:15;101335.59;;;15.36
64947;BMP280;51469;52.150;4.682;2023-04-28T03:46:40;101331.66;;;15.34
64947;BMP280;51469;52.150;4.682;2023-04-28T03:49:05;101334.81;;;15.32
64947;BMP280;51469;52.150;4.682;2023-04-28T03:51:31;101334.84;;;15.11
64947;BMP280;51469;52.150;4.682;2023-04-28T03:53:57;101336.41;;;15.12
64947;BMP280;51469;52.150;4.682;2023-04-28T03:56:22;101334.03;;;15.21
64947;BMP280;51469;52.150;4.682;2023-04-28T03:58:48;101330.88;;;15.08
64947;BMP280;51469;52.150;4.682;2023-04-28T04:01:13;101332.44;;;15.20
64947;BMP280;51469;52.150;4.682;2023-04-28T04:03:38;101328.09;;;14.98
64947;BMP280;51469;52.150;4.682;2023-04-28T04:06:05;101330.09;;;14.91
64947;BMP280;51469;52.150;4.682;2023-04-28T04:08:30;101319.81;;;15.05
64947;BMP280;51469;52.150;4.682;2023-04-28T04:10:57;101318.25;;;15.18
64947;BMP280;51469;52.150;4.682;2023-04-28T04:13:22;101317.44;;;15.28
64947;BMP280;51469;52.150;4.682;2023-04-28T04:15:47;101307.97;;;15.26
64947;BMP280;51469;52.150;4.682;2023-04-28T04:18:14;101314.28;;;15.30
64947;BMP280;51469;52.150;4.682;2023-04-28T04:20:39;101317.44;;;15.35
64947;BMP280;51469;52.150;4.682;2023-04-28T04:23:05;101303.97;;;15.44
64947;BMP280;51469;52.150;4.682;2023-04-28T04:25:30;101300.03;;;15.42
64947;BMP280;51469;52.150;4.682;2023-04-28T04:27:57;101307.94;;;15.40
64947;BMP280;51469;52.150;4.682;2023-04-28T04:30:22;101313.47;;;15.36
64947;BMP280;51469;52.150;4.682;2023-04-28T04:32:47;101313.47;;;15.47
64947;BMP280;51469;52.150;4.682;2023-04-28T04:35:13;101309.50;;;15.44
64947;BMP280;51469;52.150;4.682;2023-04-28T04:37:38;101308.69;;;15.54
64947;BMP280;51469;52.150;4.682;2023-04-28T04:40:05;101315.03;;;15.51
64947;BMP280;51469;52.150;4.682;2023-04-28T04:42:30;101318.94;;;15.64
64947;BMP280;51469;52.150;4.682;2023-04-28T04:44:55;101328.44;;;15.70
64947;BMP280;51469;52.150;4.682;2023-04-28T04:47:21;101332.41;;;15.62
64947;BMP280;51469;52.150;4.682;2023-04-28T04:49:47;101330.41;;;15.66
64947;BMP280;51469;52.150;4.682;2023-04-28T04:52:13;101328.06;;;15.61
64947;BMP280;51469;52.150;4.682;2023-04-28T04:54:38;101325.28;;;15.61
64947;BMP280;51469;52.150;4.682;2023-04-28T04:57:04;101313.47;;;15.50
64947;BMP280;51469;52.150;4.682;2023-04-28T04:59:29;101315.81;;;15.48
64947;BMP280;51469;52.150;4.682;2023-04-28T05:01:54;101318.25;;;15.39
64947;BMP280;51469;52.150;4.682;2023-04-28T05:04:20;101321.81;;;15.22
64947;BMP280;51469;52.150;4.682;2023-04-28T05:06:46;101317.47;;;15.00
64947;BMP280;51469;52.150;4.682;2023-04-28T05:09:11;101288.28;;;14.78
64947;BMP280;51469;52.150;4.682;2023-04-28T05:11:36;101272.84;;;14.49
64947;BMP280;51469;52.150;4.682;2023-04-28T05:14:02;101273.94;;;14.16
64947;BMP280;51469;52.150;4.682;2023-04-28T05:16:27;101288.53;;;14.10
64947;BMP280;51469;52.150;4.682;2023-04-28T05:18:53;101296.72;;;13.96
64947;BMP280;51469;52.150;4.682;2023-04-28T05:21:18;101299.84;;;13.91
64947;BMP280;51469;52.150;4.682;2023-04-28T05:23:44;101289.59;;;13.88
64947;BMP280;51469;52.150;4.682;2023-04-28T05:26:09;101283.31;;;13.91
64947;BMP280;51469;52.150;4.682;2023-04-28T05:28:35;101259.63;;;13.83
64947;BMP280;51469;52.150;4.682;2023-04-28T05:31:00;101259.63;;;13.76
64947;BMP280;51469;52.150;4.682;2023-04-28T05:33:25;101244.59;;;13.70
64947;BMP280;51469;52.150;4.682;2023-04-28T05:35:51;101253.28;;;13.72
64947;BMP280;51469;52.150;4.682;2023-04-28T05:38:16;101247.78;;;13.75
64947;BMP280;51469;52.150;4.682;2023-04-28T05:40:42;101243.78;;;13.59
64947;BMP280;51469;52.150;4.682;2023-04-28T05:43:07;101249.31;;;13.69
64947;BMP280;51469;52.150;4.682;2023-04-28T05:45:32;101251.34;;;13.76
64947;BMP280;51469;52.150;4.682;2023-04-28T05:47:59;101253.25;;;13.65
64947;BMP280;51469;52.150;4.682;2023-04-28T05:50:25;101263.22;;;13.90
64947;BMP280;51469;52.150;4.682;2023-04-28T05:52:50;101253.34;;;13.82
64947;BMP280;51469;52.150;4.682;2023-04-28T05:55:15;101244.69;;;13.87
64947;BMP280;51469;52.150;4.682;2023-04-28T05:57:41;101250.22;;;13.94
64947;BMP280;51469;52.150;4.682;2023-04-28T06:00:07;101265.22;;;14.00
64947;BMP280;51469;52.150;4.682;2023-04-28T06:02:32;101259.75;;;14.04
64947;BMP280;51469;52.150;4.682;2023-04-28T06:04:57;101262.06;;;13.95
64947;BMP280;51469;52.150;4.682;2023-04-28T06:07:23;101270.81;;;14.21
64947;BMP280;51469;52.150;4.682;2023-04-28T06:09:48;101271.63;;;14.22
64947;BMP280;51469;52.150;4.682;2023-04-28T06:12:14;101276.34;;;14.28
64947;BMP280;51469;52.150;4.682;2023-04-28T06:14:39;101273.25;;;14.51
64947;BMP280;51469;52.150;4.682;2023-04-28T06:17:04;101274.44;;;14.57
64947;BMP280;51469;52.150;4.682;2023-04-28T06:19:30;101264.16;;;14.50
64947;BMP280;51469;52.150;4.682;2023-04-28T06:21:55;101255.50;;;14.45
64947;BMP280;51469;52.150;4.682;2023-04-28T06:24:21;101261.41;;;14.50
64947;BMP280;51469;52.150;4.682;2023-04-28T06:26:46;101258.28;;;14.66
64947;BMP280;51469;52.150;4.682;2023-04-28T06:29:11;101259.81;;;14.60
64947;BMP280;51469;52.150;4.682;2023-04-28T06:31:37;101262.19;;;14.65
64947;BMP280;51469;52.150;4.682;2023-04-28T06:34:02;101252.72;;;14.80
64947;BMP280;51469;52.150;4.682;2023-04-28T06:36:27;101256.69;;;14.82
64947;BMP280;51469;52.150;4.682;2023-04-28T06:38:53;101266.16;;;14.78
64947;BMP280;51469;52.150;4.682;2023-04-28T06:41:18;101243.66;;;14.90
64947;BMP280;51469;52.150;4.682;2023-04-28T06:43:44;101252.72;;;14.87
64947;BMP280;51469;52.150;4.682;2023-04-28T06:46:09;101250.34;;;15.03
64947;BMP280;51469;52.150;4.682;2023-04-28T06:48:36;101242.44;;;15.05
64947;BMP280;51469;52.150;4.682;2023-04-28T06:51:01;101247.97;;;15.05
64947;BMP280;51469;52.150;4.682;2023-04-28T06:53:27;101237.72;;;14.95
64947;BMP280;51469;52.150;4.682;2023-04-28T06:55:52;101240.91;;;14.97
64947;BMP280;51469;52.150;4.682;2023-04-28T06:58:18;101240.50;;;14.95
64947;BMP280;51469;52.150;4.682;2023-04-28T07:00:44;101231.44;;;14.91
64947;BMP280;51469;52.150;4.682;2023-04-28T07:03:10;101247.19;;;15.08
64947;BMP280;51469;52.150;4.682;2023-04-28T07:05:35;101238.53;;;15.03
64947;BMP280;51469;52.150;4.682;2023-04-28T07:08:02;101244.47;;;15.01
64947;BMP280;51469;52.150;4.682;2023-04-28T07:10:27;101247.97;;;15.08
64947;BMP280;51469;52.150;4.682;2023-04-28T07:12:53;101245.22;;;15.05
64947;BMP280;51469;52.150;4.682;2023-04-28T07:15:18;101254.25;;;15.27
64947;BMP280;51469;52.150;4.682;2023-04-28T07:17:43;101233.75;;;15.21
64947;BMP280;51469;52.150;4.682;2023-04-28T07:20:09;101252.69;;;15.22
64947;BMP280;51469;52.150;4.682;2023-04-28T07:22:35;101248.00;;;15.19
64947;BMP280;51469;52.150;4.682;2023-04-28T07:25:00;101250.28;;;15.45
64947;BMP280;51469;52.150;4.682;2023-04-28T07:27:25;101232.09;;;15.44
64947;BMP280;51469;52.150;4.682;2023-04-28T07:29:51;101240.75;;;15.53
64947;BMP280;51469;52.150;4.682;2023-04-28T07:32:16;101250.19;;;15.59
64947;BMP280;51469;52.150;4.682;2023-04-28T07:34:41;101239.22;;;15.45
64947;BMP280;51469;52.150;4.682;2023-04-28T07:37:07;101247.09;;;15.57
64947;BMP280;51469;52.150;4.682;2023-04-28T07:39:32;101248.13;;;15.84
64947;BMP280;51469;52.150;4.682;2023-04-28T07:41:59;101238.31;;;15.73
64947;BMP280;51469;52.150;4.682;2023-04-28T07:44:25;101237.56;;;15.65
64947;BMP280;51469;52.150;4.682;2023-04-28T07:46:50;101237.88;;;15.78
64947;BMP280;51469;52.150;4.682;2023-04-28T07:49:16;101249.34;;;15.76
64947;BMP280;51469;52.150;4.682;2023-04-28T07:51:41;101244.94;;;15.89
64947;BMP280;51469;52.150;4.682;2023-04-28T07:54:07;101242.53;;;15.98
64947;BMP280;51469;52.150;4.682;2023-04-28T07:56:33;101244.50;;;15.98
64947;BMP280;51469;52.150;4.682;2023-04-28T07:58:58;101234.97;;;16.09
64947;BMP280;51469;52.150;4.682;2023-04-28T08:03:59;101240.38;;;16.23
64947;BMP280;51469;52.150;4.682;2023-04-28T08:06:25;101238.75;;;16.36
64947;BMP280;51469;52.150;4.682;2023-04-28T08:08:50;101237.47;;;16.44
64947;BMP280;51469;52.150;4.682;2023-04-28T08:11:16;101235.41;;;16.55
64947;BMP280;51469;52.150;4.682;2023-04-28T08:13:41;101229.00;;;16.65
64947;BMP280;51469;52.150;4.682;2023-04-28T08:16:06;101232.34;;;16.43
64947;BMP280;51469;52.150;4.682;2023-04-28T08:18:32;101241.84;;;16.38
64947;BMP280;51469;52.150;4.682;2023-04-28T08:20:57;101239.50;;;16.37
64947;BMP280;51469;52.150;4.682;2023-04-28T08:23:23;101230.00;;;16.38
64947;BMP280;51469;52.150;4.682;2023-04-28T08:25:52;101235.97;;;16.33
64947;BMP280;51469;52.150;4.682;2023-04-28T08:28:17;101237.06;;;16.42
64947;BMP280;51469;52.150;4.682;2023-04-28T08:30:43;101230.50;;;16.22
64947;BMP280;51469;52.150;4.682;2023-04-28T08:33:08;101235.16;;;16.39
64947;BMP280;51469;52.150;4.682;2023-04-28T08:35:33;101235.56;;;16.34
64947;BMP280;51469;52.150;4.682;2023-04-28T08:37:59;101231.63;;;16.28
64947;BMP280;51469;52.150;4.682;2023-04-28T08:40:24;101232.41;;;16.36
64947;BMP280;51469;52.150;4.682;2023-04-28T08:42:51;101226.88;;;16.36
64947;BMP280;51469;52.150;4.682;2023-04-28T08:45:16;101227.56;;;16.43
64947;BMP280;51469;52.150;4.682;2023-04-28T08:47:42;101229.56;;;16.46
64947;BMP280;51469;52.150;4.682;2023-04-28T08:50:12;101226.50;;;16.74
64947;BMP280;51469;52.150;4.682;2023-04-28T08:52:39;101223.75;;;16.74
64947;BMP280;51469;52.150;4.682;2023-04-28T08:55:07;101223.00;;;17.07
64947;BMP280;51469;52.150;4.682;2023-04-28T08:57:40;101217.16;;;17.02
64947;BMP280;51469;52.150;4.682;2023-04-28T09:00:07;101213.94;;;17.07
64947;BMP280;51469;52.150;4.682;2023-04-28T09:02:33;101212.97;;;16.83
64947;BMP280;51469;52.150;4.682;2023-04-28T09:04:58;101216.72;;;17.03
64947;BMP280;51469;52.150;4.682;2023-04-28T09:07:24;101221.19;;;17.27
64947;BMP280;51469;52.150;4.682;2023-04-28T09:09:49;101214.69;;;17.44
64947;BMP280;51469;52.150;4.682;2023-04-28T09:12:14;101220.56;;;17.16
64947;BMP280;51469;52.150;4.682;2023-04-28T09:14:40;101217.13;;;17.05
64947;BMP280;51469;52.150;4.682;2023-04-28T09:17:13;101214.47;;;17.28
64947;BMP280;51469;52.150;4.682;2023-04-28T09:19:39;101206.53;;;16.93
64947;BMP280;51469;52.150;4.682;2023-04-28T09:22:07;101210.56;;;17.22
64947;BMP280;51469;52.150;4.682;2023-04-28T09:24:37;101198.94;;;17.34
64947;BMP280;51469;52.150;4.682;2023-04-28T09:27:11;101197.28;;;17.40
64947;BMP280;51469;52.150;4.682;2023-04-28T09:29:38;101198.38;;;17.50
64947;BMP280;51469;52.150;4.682;2023-04-28T09:34:47;101189.72;;;17.74
64947;BMP280;51469;52.150;4.682;2023-04-28T09:37:17;101192.16;;;17.95
64947;BMP280;51469;52.150;4.682;2023-04-28T09:39:48;101189.50;;;17.88
64947;BMP280;51469;52.150;4.682;2023-04-28T09:45:00;101179.78;;;17.73
64947;BMP280;51469;52.150;4.682;2023-04-28T09:47:27;101190.78;;;18.06
64947;BMP280;51469;52.150;4.682;2023-04-28T09:49:57;101189.88;;;18.13
64947;BMP280;51469;52.150;4.682;2023-04-28T09:52:24;101191.97;;;18.32
64947;BMP280;51469;52.150;4.682;2023-04-28T09:54:51;101184.31;;;18.59
64947;BMP280;51469;52.150;4.682;2023-04-28T09:57:17;101191.69;;;18.46
64947;BMP280;51469;52.150;4.682;2023-04-28T09:59:50;101191.06;;;18.38
64947;BMP280;51469;52.150;4.682;2023-04-28T10:02:17;101185.75;;;18.67
64947;BMP280;51469;52.150;4.682;2023-04-28T10:04:44;101197.50;;;18.78
64947;BMP280;51469;52.150;4.682;2023-04-28T10:07:14;101199.16;;;18.26
64947;BMP280;51469;52.150;4.682;2023-04-28T10:09:42;101195.44;;;18.59
64947;BMP280;51469;52.150;4.682;2023-04-28T10:12:19;101196.03;;;18.70
64947;BMP280;51469;52.150;4.682;2023-04-28T10:14:45;101192.16;;;18.64
64947;BMP280;51469;52.150;4.682;2023-04-28T10:17:16;101202.47;;;18.44
64947;BMP280;51469;52.150;4.682;2023-04-28T10:19:43;101194.97;;;18.83
64947;BMP280;51469;52.150;4.682;2023-04-28T10:27:38;101196.56;;;19.04
64947;BMP280;51469;52.150;4.682;2023-04-28T10:30:18;101206.97;;;19.19
64947;BMP280;51469;52.150;4.682;2023-04-28T10:32:44;101199.53;;;19.13
64947;BMP280;51469;52.150;4.682;2023-04-28T10:40:38;101212.72;;;18.24
64947;BMP280;51469;52.150;4.682;2023-04-28T10:43:04;101203.75;;;18.82
64947;BMP280;51469;52.150;4.682;2023-04-28T10:48:23;101208.19;;;18.99
64947;BMP280;51469;52.150;4.682;2023-04-28T10:56:15;101209.06;;;18.96
64947;BMP280;51469;52.150;4.682;2023-04-28T10:58:44;101209.00;;;19.19
64947;BMP280;51469;52.150;4.682;2023-04-28T11:03:58;101209.19;;;19.28
64947;BMP280;51469;52.150;4.682;2023-04-28T11:06:40;101207.88;;;19.52
64947;BMP280;51469;52.150;4.682;2023-04-28T11:12:05;101201.09;;;19.69
64947;BMP280;51469;52.150;4.682;2023-04-28T11:14:35;101194.81;;;19.29
64947;BMP280;51469;52.150;4.682;2023-04-28T11:17:04;101202.75;;;19.31
64947;BMP280;51469;52.150;4.682;2023-04-28T11:19:37;101202.34;;;19.13
64947;BMP280;51469;52.150;4.682;2023-04-28T11:24:37;101195.38;;;19.60
64947;BMP280;51469;52.150;4.682;2023-04-28T11:27:03;101199.41;;;19.75
64947;BMP280;51469;52.150;4.682;2023-04-28T11:29:36;101205.41;;;19.18
64947;BMP280;51469;52.150;4.682;2023-04-28T11:32:07;101207.13;;;19.32
64947;BMP280;51469;52.150;4.682;2023-04-28T11:34:33;101207.91;;;19.13
64947;BMP280;51469;52.150;4.682;2023-04-28T11:36:59;101208.13;;;19.22
64947;BMP280;51469;52.150;4.682;2023-04-28T11:39:29;101208.31;;;19.31
64947;BMP280;51469;52.150;4.682;2023-04-28T11:41:55;101209.03;;;19.35
64947;BMP280;51469;52.150;4.682;2023-04-28T11:44:22;101213.34;;;19.20
64947;BMP280;51469;52.150;4.682;2023-04-28T11:49:23;101220.31;;;19.08
64947;BMP280;51469;52.150;4.682;2023-04-28T11:51:50;101226.88;;;19.18
64947;BMP280;51469;52.150;4.682;2023-04-28T11:54:20;101221.16;;;19.25
64947;BMP280;51469;52.150;4.682;2023-04-28T11:56:46;101229.38;;;19.12
64947;BMP280;51469;52.150;4.682;2023-04-28T11:59:12;101224.97;;;19.15
64947;BMP280;51469;52.150;4.682;2023-04-28T12:01:49;101230.38;;;19.41
64947;BMP280;51469;52.150;4.682;2023-04-28T12:04:31;101235.72;;;19.52
64947;BMP280;51469;52.150;4.682;2023-04-28T12:09:28;101227.53;;;19.61
64947;BMP280;51469;52.150;4.682;2023-04-28T12:11:55;101224.00;;;19.41
64947;BMP280;51469;52.150;4.682;2023-04-28T12:14:22;101227.69;;;19.54
64947;BMP280;51469;52.150;4.682;2023-04-28T12:16:47;101229.81;;;19.66
64947;BMP280;51469;52.150;4.682;2023-04-28T12:19:14;101225.72;;;19.35
64947;BMP280;51469;52.150;4.682;2023-04-28T12:21:41;101224.09;;;19.73
64947;BMP280;51469;52.150;4.682;2023-04-28T12:24:19;101235.28;;;19.34
64947;BMP280;51469;52.150;4.682;2023-04-28T12:26:48;101231.72;;;19.53
64947;BMP280;51469;52.150;4.682;2023-04-28T12:29:38;101242.69;;;19.21
64947;BMP280;51469;52.150;4.682;2023-04-28T12:32:05;101230.06;;;19.36
64947;BMP280;51469;52.150;4.682;2023-04-28T12:34:31;101233.72;;;19.33
64947;BMP280;51469;52.150;4.682;2023-04-28T12:36:58;101238.00;;;19.18
64947;BMP280;51469;52.150;4.682;2023-04-28T12:39:24;101242.28;;;19.42
64947;BMP280;51469;52.150;4.682;2023-04-28T12:41:51;101231.50;;;19.24
64947;BMP280;51469;52.150;4.682;2023-04-28T12:44:16;101241.59;;;18.76
64947;BMP280;51469;52.150;4.682;2023-04-28T12:46:41;101237.41;;;19.07
64947;BMP280;51469;52.150;4.682;2023-04-28T12:49:07;101243.06;;;19.23
64947;BMP280;51469;52.150;4.682;2023-04-28T12:51:32;101233.91;;;19.42
64947;BMP280;51469;52.150;4.682;2023-04-28T12:53:59;101238.72;;;19.22
64947;BMP280;51469;52.150;4.682;2023-04-28T12:56:25;101242.13;;;19.10
64947;BMP280;51469;52.150;4.682;2023-04-28T12:58:51;101244.09;;;18.90
64947;BMP280;51469;52.150;4.682;2023-04-28T13:01:16;101248.81;;;18.93
64947;BMP280;51469;52.150;4.682;2023-04-28T13:03:41;101260.06;;;18.86
64947;BMP280;51469;52.150;4.682;2023-04-28T13:06:08;101256.09;;;18.87
64947;BMP280;51469;52.150;4.682;2023-04-28T13:08:35;101247.81;;;19.03
64947;BMP280;51469;52.150;4.682;2023-04-28T13:11:00;101253.81;;;19.01
64947;BMP280;51469;52.150;4.682;2023-04-28T13:13:28;101257.19;;;18.70
64947;BMP280;51469;52.150;4.682;2023-04-28T13:15:54;101256.69;;;18.98
64947;BMP280;51469;52.150;4.682;2023-04-28T13:18:19;101265.50;;;18.93
64947;BMP280;51469;52.150;4.682;2023-04-28T13:20:44;101263.88;;;18.72
64947;BMP280;51469;52.150;4.682;2023-04-28T13:23:10;101263.00;;;18.56
64947;BMP280;51469;52.150;4.682;2023-04-28T13:25:35;101260.19;;;18.33
64947;BMP280;51469;52.150;4.682;2023-04-28T13:28:00;101271.81;;;18.51
64947;BMP280;51469;52.150;4.682;2023-04-28T13:30:26;101272.44;;;18.58
64947;BMP280;51469;52.150;4.682;2023-04-28T13:32:51;101263.34;;;18.81
64947;BMP280;51469;52.150;4.682;2023-04-28T13:35:17;101270.44;;;19.05
64947;BMP280;51469;52.150;4.682;2023-04-28T13:37:43;101260.25;;;19.18
64947;BMP280;51469;52.150;4.682;2023-04-28T13:40:10;101260.31;;;19.14
64947;BMP280;51469;52.150;4.682;2023-04-28T13:42:36;101272.03;;;19.45
64947;BMP280;51469;52.150;4.682;2023-04-28T13:45:05;101253.47;;;19.58
64947;BMP280;51469;52.150;4.682;2023-04-28T13:47:30;101267.13;;;19.33
64947;BMP280;51469;52.150;4.682;2023-04-28T13:49:57;101263.41;;;19.20
64947;BMP280;51469;52.150;4.682;2023-04-28T13:52:24;101270.25;;;19.35
64947;BMP280;51469;52.150;4.682;2023-04-28T13:54:50;101266.47;;;19.25
64947;BMP280;51469;52.150;4.682;2023-04-28T13:57:15;101268.97;;;19.20
64947;BMP280;51469;52.150;4.682;2023-04-28T13:59:40;101274.81;;;19.06
64947;BMP280;51469;52.150;4.682;2023-04-28T14:02:06;101271.13;;;19.32
64947;BMP280;51469;52.150;4.682;2023-04-28T14:04:33;101273.41;;;19.37
64947;BMP280;51469;52.150;4.682;2023-04-28T14:06:59;101267.97;;;19.30
64947;BMP280;51469;52.150;4.682;2023-04-28T14:09:24;101274.91;;;19.41
64947;BMP280;51469;52.150;4.682;2023-04-28T14:11:50;101272.09;;;19.61
64947;BMP280;51469;52.150;4.682;2023-04-28T14:14:15;101286.94;;;19.35
64947;BMP280;51469;52.150;4.682;2023-04-28T14:16:40;101281.34;;;18.96
64947;BMP280;51469;52.150;4.682;2023-04-28T14:19:06;101295.00;;;18.87
64947;BMP280;51469;52.150;4.682;2023-04-28T14:21:31;101286.75;;;19.03
64947;BMP280;51469;52.150;4.682;2023-04-28T14:23:57;101294.03;;;18.97
64947;BMP280;51469;52.150;4.682;2023-04-28T14:26:22;101289.31;;;18.94
64947;BMP280;51469;52.150;4.682;2023-04-28T14:28:48;101284.38;;;18.59
64947;BMP280;51469;52.150;4.682;2023-04-28T14:31:13;101291.50;;;19.06